sensor_id;sensor_type;location;lat;lon;timestamp;temperature;humidity
32293;DHT22;43233;48.608;8.838;2023-06-14T00:00:18;15.30;32.80
32293;DHT22;43233;48.608;8.838;2023-06-14T00:02:44;15.20;33.00
32293;DHT22;43233;48.608;8.838;2023-06-14T00:05:09;15.20;33.30
32293;DHT22;43233;48.608;8.838;2023-06-14T00:07:39;15.00;33.50
32293;DHT22;43233;48.608;8.838;2023-06-14T00:10:09;14.90;33.80
32293;DHT22;43233;48.608;8.838;2023-06-14T00:12:35;14.80;33.80
32293;DHT22;43233;48.608;8.838;2023-06-14T00:15:02;14.80;34.10
32293;DHT22;43233;48.608;8.838;2023-06-14T00:17:28;14.80;34.40
32293;DHT22;43233;48.608;8.838;2023-06-14T00:20:00;14.80;34.40
32293;DHT22;43233;48.608;8.838;2023-06-14T00:22:26;14.80;34.30
32293;DHT22;43233;48.608;8.838;2023-06-14T00:24:54;14.80;34.10
32293;DHT22;43233;48.608;8.838;2023-06-14T00:27:19;14.80;33.80
32293;DHT22;43233;48.608;8.838;2023-06-14T00:29:45;14.90;34.00
32293;DHT22;43233;48.608;8.838;2023-06-14T00:32:11;14.80;34.20
32293;DHT22;43233;48.608;8.838;2023-06-14T00:34:36;14.80;34.20
32293;DHT22;43233;48.608;8.838;2023-06-14T00:37:02;14.80;34.70
32293;DHT22;43233;48.608;8.838;2023-06-14T00:39:29;14.70;34.90
32293;DHT22;43233;48.608;8.838;2023-06-14T00:41:54;14.70;35.00
32293;DHT22;43233;48.608;8.838;2023-06-14T00:44:20;14.60;35.20
32293;DHT22;43233;48.608;8.838;2023-06-14T00:46:46;14.60;35.30
32293;DHT22;43233;48.608;8.838;2023-06-14T00:49:14;14.50;35.30
32293;DHT22;43233;48.608;8.838;2023-06-14T00:51:44;14.50;35.20
32293;DHT22;43233;48.608;8.838;2023-06-14T00:54:10;14.40;35.50
32293;DHT22;43233;48.608;8.838;2023-06-14T00:56:37;14.30;35.70
32293;DHT22;43233;48.608;8.838;2023-06-14T00:59:03;14.20;35.80
32293;DHT22;43233;48.608;8.838;2023-06-14T01:01:30;14.20;35.90
32293;DHT22;43233;48.608;8.838;2023-06-14T01:03:58;14.20;36.00
32293;DHT22;43233;48.608;8.838;2023-06-14T01:06:56;14.20;35.90
32293;DHT22;43233;48.608;8.838;2023-06-14T01:12:44;14.20;35.50
32293;DHT22;43233;48.608;8.838;2023-06-14T01:15:13;14.20;35.40
32293;DHT22;43233;48.608;8.838;2023-06-14T01:17:40;14.20;35.50
32293;DHT22;43233;48.608;8.838;2023-06-14T01:20:11;14.10;35.70
32293;DHT22;43233;48.608;8.838;2023-06-14T01:22:54;14.10;35.70
32293;DHT22;43233;48.608;8.838;2023-06-14T01:25:20;14.00;35.70
32293;DHT22;43233;48.608;8.838;2023-06-14T01:27:57;13.90;35.90
32293;DHT22;43233;48.608;8.838;2023-06-14T01:30:24;13.90;36.10
32293;DHT22;43233;48.608;8.838;2023-06-14T01:32:54;13.90;36.20
32293;DHT22;43233;48.608;8.838;2023-06-14T01:35:21;13.90;35.80
32293;DHT22;43233;48.608;8.838;2023-06-14T01:37:48;13.90;35.90
32293;DHT22;43233;48.608;8.838;2023-06-14T01:40:15;13.90;35.80
32293;DHT22;43233;48.608;8.838;2023-06-14T01:42:41;13.90;36.10
32293;DHT22;43233;48.608;8.838;2023-06-14T01:45:09;13.90;36.30
32293;DHT22;43233;48.608;8.838;2023-06-14T01:47:36;13.80;36.20
32293;DHT22;43233;48.608;8.838;2023-06-14T01:50:05;13.70;36.20
32293;DHT22;43233;48.608;8.838;2023-06-14T01:52:31;13.80;36.30
32293;DHT22;43233;48.608;8.838;2023-06-14T01:54:57;13.80;36.20
32293;DHT22;43233;48.608;8.838;2023-06-14T01:57:24;13.90;36.30
32293;DHT22;43233;48.608;8.838;2023-06-14T01:59:50;13.80;36.20
32293;DHT22;43233;48.608;8.838;2023-06-14T02:02:16;13.80;36.30
32293;DHT22;43233;48.608;8.838;2023-06-14T02:04:42;13.80;36.40
32293;DHT22;43233;48.608;8.838;2023-06-14T02:07:08;13.80;36.60
32293;DHT22;43233;48.608;8.838;2023-06-14T02:09:34;13.70;36.80
32293;DHT22;43233;48.608;8.838;2023-06-14T02:12:00;13.70;37.10
32293;DHT22;43233;48.608;8.838;2023-06-14T02:14:26;13.60;37.20
32293;DHT22;43233;48.608;8.838;2023-06-14T02:16:52;13.50;37.60
32293;DHT22;43233;48.608;8.838;2023-06-14T02:19:20;13.30;38.00
32293;DHT22;43233;48.608;8.838;2023-06-14T02:21:46;13.30;38.60
32293;DHT22;43233;48.608;8.838;2023-06-14T02:24:13;13.20;38.80
32293;DHT22;43233;48.608;8.838;2023-06-14T02:26:39;13.20;38.60
32293;DHT22;43233;48.608;8.838;2023-06-14T02:29:05;13.20;38.60
32293;DHT22;43233;48.608;8.838;2023-06-14T02:31:31;13.20;38.30
32293;DHT22;43233;48.608;8.838;2023-06-14T02:33:57;13.20;38.30
32293;DHT22;43233;48.608;8.838;2023-06-14T02:36:22;13.30;38.50
32293;DHT22;43233;48.608;8.838;2023-06-14T02:38:48;13.20;38.70
32293;DHT22;43233;48.608;8.838;2023-06-14T02:41:14;13.20;38.70
32293;DHT22;43233;48.608;8.838;2023-06-14T02:43:39;13.10;38.80
32293;DHT22;43233;48.608;8.838;2023-06-14T02:46:05;13.10;38.80
32293;DHT22;43233;48.608;8.838;2023-06-14T02:48:31;13.10;38.90
32293;DHT22;43233;48.608;8.838;2023-06-14T02:50:57;13.10;39.00
32293;DHT22;43233;48.608;8.838;2023-06-14T02:53:22;13.10;39.00
32293;DHT22;43233;48.608;8.838;2023-06-14T02:55:48;13.10;39.00
32293;DHT22;43233;48.608;8.838;2023-06-14T02:58:14;13.10;39.10
32293;DHT22;43233;48.608;8.838;2023-06-14T03:00:40;13.10;38.90
32293;DHT22;43233;48.608;8.838;2023-06-14T03:03:06;13.10;38.70
32293;DHT22;43233;48.608;8.838;2023-06-14T03:05:44;13.10;38.60
32293;DHT22;43233;48.608;8.838;2023-06-14T03:08:13;13.10;38.70
32293;DHT22;43233;48.608;8.838;2023-06-14T03:10:47;13.20;38.70
32293;DHT22;43233;48.608;8.838;2023-06-14T03:13:14;13.20;38.60
32293;DHT22;43233;48.608;8.838;2023-06-14T03:15:41;13.20;38.80
32293;DHT22;43233;48.608;8.838;2023-06-14T03:18:10;13.10;38.80
32293;DHT22;43233;48.608;8.838;2023-06-14T03:20:37;13.10;38.80
32293;DHT22;43233;48.608;8.838;2023-06-14T03:23:03;13.20;38.90
32293;DHT22;43233;48.608;8.838;2023-06-14T03:25:30;13.10;39.00
32293;DHT22;43233;48.608;8.838;2023-06-14T03:27:57;13.10;39.00
32293;DHT22;43233;48.608;8.838;2023-06-14T03:30:22;13.10;39.30
32293;DHT22;43233;48.608;8.838;2023-06-14T03:32:48;13.00;39.40
32293;DHT22;43233;48.608;8.838;2023-06-14T03:35:14;12.90;40.00
32293;DHT22;43233;48.608;8.838;2023-06-14T03:37:46;12.90;40.00
32293;DHT22;43233;48.608;8.838;2023-06-14T03:40:15;12.90;40.20
32293;DHT22;43233;48.608;8.838;2023-06-14T03:42:41;12.80;40.40
32293;DHT22;43233;48.608;8.838;2023-06-14T03:45:07;12.90;40.60
32293;DHT22;43233;48.608;8.838;2023-06-14T03:47:33;12.90;40.50
32293;DHT22;43233;48.608;8.838;2023-06-14T03:49:59;12.90;40.30
32293;DHT22;43233;48.608;8.838;2023-06-14T03:52:25;12.90;40.40
32293;DHT22;43233;48.608;8.838;2023-06-14T03:54:51;12.90;40.80
32293;DHT22;43233;48.608;8.838;2023-06-14T03:57:17;12.90;41.10
32293;DHT22;43233;48.608;8.838;2023-06-14T03:59:43;12.90;41.40
32293;DHT22;43233;48.608;8.838;2023-06-14T04:02:08;12.90;41.40
32293;DHT22;43233;48.608;8.838;2023-06-14T04:04:40;12.90;41.30
32293;DHT22;43233;48.608;8.838;2023-06-14T04:07:12;13.00;41.30
32293;DHT22;43233;48.608;8.838;2023-06-14T04:09:39;13.00;41.40
32293;DHT22;43233;48.608;8.838;2023-06-14T04:12:05;13.00;41.60
32293;DHT22;43233;48.608;8.838;2023-06-14T04:14:31;13.00;41.80
32293;DHT22;43233;48.608;8.838;2023-06-14T04:16:58;13.00;42.00
32293;DHT22;43233;48.608;8.838;2023-06-14T04:19:24;13.00;42.10
32293;DHT22;43233;48.608;8.838;2023-06-14T04:21:50;13.10;42.10
32293;DHT22;43233;48.608;8.838;2023-06-14T04:24:16;13.10;42.20
32293;DHT22;43233;48.608;8.838;2023-06-14T04:26:42;13.10;42.30
32293;DHT22;43233;48.608;8.838;2023-06-14T04:29:13;13.10;42.40
32293;DHT22;43233;48.608;8.838;2023-06-14T04:31:43;13.10;42.80
32293;DHT22;43233;48.608;8.838;2023-06-14T04:34:10;13.10;43.10
32293;DHT22;43233;48.608;8.838;2023-06-14T04:36:42;13.10;43.40
32293;DHT22;43233;48.608;8.838;2023-06-14T04:39:18;13.10;43.50
32293;DHT22;43233;48.608;8.838;2023-06-14T04:41:44;13.20;43.80
32293;DHT22;43233;48.608;8.838;2023-06-14T04:44:10;13.20;43.80
32293;DHT22;43233;48.608;8.838;2023-06-14T04:46:38;13.30;43.90
32293;DHT22;43233;48.608;8.838;2023-06-14T04:49:14;13.40;43.70
32293;DHT22;43233;48.608;8.838;2023-06-14T04:51:41;13.40;43.40
32293;DHT22;43233;48.608;8.838;2023-06-14T04:54:08;13.50;43.60
32293;DHT22;43233;48.608;8.838;2023-06-14T04:56:38;13.60;43.80
32293;DHT22;43233;48.608;8.838;2023-06-14T04:59:04;13.70;44.10
32293;DHT22;43233;48.608;8.838;2023-06-14T05:01:30;13.70;43.70
32293;DHT22;43233;48.608;8.838;2023-06-14T05:03:57;13.80;44.00
32293;DHT22;43233;48.608;8.838;2023-06-14T05:06:23;13.90;43.90
32293;DHT22;43233;48.608;8.838;2023-06-14T05:08:49;14.00;43.50
32293;DHT22;43233;48.608;8.838;2023-06-14T05:11:15;14.10;43.50
32293;DHT22;43233;48.608;8.838;2023-06-14T05:13:43;14.10;43.70
32293;DHT22;43233;48.608;8.838;2023-06-14T05:16:12;14.20;43.50
32293;DHT22;43233;48.608;8.838;2023-06-14T05:18:41;14.30;43.00
32293;DHT22;43233;48.608;8.838;2023-06-14T05:21:06;14.30;42.70
32293;DHT22;43233;48.608;8.838;2023-06-14T05:23:32;14.40;42.20
32293;DHT22;43233;48.608;8.838;2023-06-14T05:25:57;14.50;42.50
32293;DHT22;43233;48.608;8.838;2023-06-14T05:28:23;14.50;42.70
32293;DHT22;43233;48.608;8.838;2023-06-14T05:30:49;14.60;42.70
32293;DHT22;43233;48.608;8.838;2023-06-14T05:33:15;14.60;42.70
32293;DHT22;43233;48.608;8.838;2023-06-14T05:35:41;14.60;42.60
32293;DHT22;43233;48.608;8.838;2023-06-14T05:38:06;14.70;43.00
32293;DHT22;43233;48.608;8.838;2023-06-14T05:40:33;14.80;42.70
32293;DHT22;43233;48.608;8.838;2023-06-14T05:42:58;14.90;42.30
32293;DHT22;43233;48.608;8.838;2023-06-14T05:45:24;14.90;41.50
32293;DHT22;43233;48.608;8.838;2023-06-14T05:47:50;15.00;41.20
32293;DHT22;43233;48.608;8.838;2023-06-14T05:50:16;15.10;41.30
32293;DHT22;43233;48.608;8.838;2023-06-14T05:52:41;15.20;41.70
32293;DHT22;43233;48.608;8.838;2023-06-14T05:55:07;15.20;41.10
32293;DHT22;43233;48.608;8.838;2023-06-14T05:57:33;15.30;41.20
32293;DHT22;43233;48.608;8.838;2023-06-14T05:59:58;15.40;40.50
32293;DHT22;43233;48.608;8.838;2023-06-14T06:02:24;15.40;40.10
32293;DHT22;43233;48.608;8.838;2023-06-14T06:04:50;15.50;40.20
32293;DHT22;43233;48.608;8.838;2023-06-14T06:07:15;15.60;41.50
32293;DHT22;43233;48.608;8.838;2023-06-14T06:09:41;15.70;42.00
32293;DHT22;43233;48.608;8.838;2023-06-14T06:12:07;15.70;42.30
32293;DHT22;43233;48.608;8.838;2023-06-14T06:14:33;15.80;41.90
32293;DHT22;43233;48.608;8.838;2023-06-14T06:16:59;15.90;41.90
32293;DHT22;43233;48.608;8.838;2023-06-14T06:19:24;16.00;40.60
32293;DHT22;43233;48.608;8.838;2023-06-14T06:21:50;16.10;39.60
32293;DHT22;43233;48.608;8.838;2023-06-14T06:24:16;16.20;39.10
32293;DHT22;43233;48.608;8.838;2023-06-14T06:26:42;16.30;39.40
32293;DHT22;43233;48.608;8.838;2023-06-14T06:29:08;16.40;38.90
32293;DHT22;43233;48.608;8.838;2023-06-14T06:31:33;16.40;38.50
32293;DHT22;43233;48.608;8.838;2023-06-14T06:33:59;16.60;37.70
32293;DHT22;43233;48.608;8.838;2023-06-14T06:36:25;16.60;38.10
32293;DHT22;43233;48.608;8.838;2023-06-14T06:38:50;16.70;38.00
32293;DHT22;43233;48.608;8.838;2023-06-14T06:41:16;16.80;37.60
32293;DHT22;43233;48.608;8.838;2023-06-14T06:43:42;16.90;37.10
32293;DHT22;43233;48.608;8.838;2023-06-14T06:46:07;17.00;36.80
32293;DHT22;43233;48.608;8.838;2023-06-14T06:48:33;17.10;37.10
32293;DHT22;43233;48.608;8.838;2023-06-14T06:50:58;17.10;36.60
32293;DHT22;43233;48.608;8.838;2023-06-14T06:53:24;17.20;37.20
32293;DHT22;43233;48.608;8.838;2023-06-14T06:55:50;17.30;36.90
32293;DHT22;43233;48.608;8.838;2023-06-14T06:58:15;17.40;36.20
32293;DHT22;43233;48.608;8.838;2023-06-14T07:00:41;17.50;36.30
32293;DHT22;43233;48.608;8.838;2023-06-14T07:03:06;17.50;35.80
32293;DHT22;43233;48.608;8.838;2023-06-14T07:05:32;17.70;36.10
32293;DHT22;43233;48.608;8.838;2023-06-14T07:07:58;17.70;36.40
32293;DHT22;43233;48.608;8.838;2023-06-14T07:10:24;17.90;36.20
32293;DHT22;43233;48.608;8.838;2023-06-14T07:12:52;17.90;35.40
32293;DHT22;43233;48.608;8.838;2023-06-14T07:15:18;18.00;35.20
32293;DHT22;43233;48.608;8.838;2023-06-14T07:17:43;18.10;34.30
32293;DHT22;43233;48.608;8.838;2023-06-14T07:20:10;18.20;34.90
32293;DHT22;43233;48.608;8.838;2023-06-14T07:22:42;18.20;34.40
32293;DHT22;43233;48.608;8.838;2023-06-14T07:25:09;18.30;34.40
32293;DHT22;43233;48.608;8.838;2023-06-14T07:27:35;18.40;35.40
32293;DHT22;43233;48.608;8.838;2023-06-14T07:30:00;18.50;35.00
32293;DHT22;43233;48.608;8.838;2023-06-14T07:32:26;18.60;34.30
32293;DHT22;43233;48.608;8.838;2023-06-14T07:34:52;18.70;33.60
32293;DHT22;43233;48.608;8.838;2023-06-14T07:37:17;18.80;33.80
32293;DHT22;43233;48.608;8.838;2023-06-14T07:39:43;18.90;34.10
32293;DHT22;43233;48.608;8.838;2023-06-14T07:42:08;19.00;34.60
32293;DHT22;43233;48.608;8.838;2023-06-14T07:44:34;19.10;34.30
32293;DHT22;43233;48.608;8.838;2023-06-14T07:47:01;19.20;33.30
32293;DHT22;43233;48.608;8.838;2023-06-14T07:49:27;19.30;33.10
32293;DHT22;43233;48.608;8.838;2023-06-14T07:51:53;19.40;34.00
32293;DHT22;43233;48.608;8.838;2023-06-14T07:54:19;19.50;34.20
32293;DHT22;43233;48.608;8.838;2023-06-14T07:56:45;19.60;33.90
32293;DHT22;43233;48.608;8.838;2023-06-14T07:59:11;19.70;34.00
32293;DHT22;43233;48.608;8.838;2023-06-14T08:01:36;19.80;33.00
32293;DHT22;43233;48.608;8.838;2023-06-14T08:04:02;19.90;32.50
32293;DHT22;43233;48.608;8.838;2023-06-14T08:06:28;20.00;32.10
32293;DHT22;43233;48.608;8.838;2023-06-14T08:08:53;20.00;32.20
32293;DHT22;43233;48.608;8.838;2023-06-14T08:11:19;20.10;32.10
32293;DHT22;43233;48.608;8.838;2023-06-14T08:13:45;20.20;32.00
32293;DHT22;43233;48.608;8.838;2023-06-14T08:16:10;20.20;30.80
32293;DHT22;43233;48.608;8.838;2023-06-14T08:18:36;20.30;31.60
32293;DHT22;43233;48.608;8.838;2023-06-14T08:21:01;20.40;31.60
32293;DHT22;43233;48.608;8.838;2023-06-14T08:23:28;20.50;31.60
32293;DHT22;43233;48.608;8.838;2023-06-14T08:25:53;20.60;31.50
32293;DHT22;43233;48.608;8.838;2023-06-14T08:28:20;20.70;31.50
32293;DHT22;43233;48.608;8.838;2023-06-14T08:30:45;20.70;31.40
32293;DHT22;43233;48.608;8.838;2023-06-14T08:33:11;20.80;30.30
32293;DHT22;43233;48.608;8.838;2023-06-14T08:35:36;20.80;30.50
32293;DHT22;43233;48.608;8.838;2023-06-14T08:38:03;20.90;30.60
32293;DHT22;43233;48.608;8.838;2023-06-14T08:40:30;21.00;31.20
32293;DHT22;43233;48.608;8.838;2023-06-14T08:42:56;21.10;31.00
32293;DHT22;43233;48.608;8.838;2023-06-14T08:45:23;21.20;29.50
32293;DHT22;43233;48.608;8.838;2023-06-14T08:47:49;21.20;30.00
32293;DHT22;43233;48.608;8.838;2023-06-14T08:50:23;21.30;30.20
32293;DHT22;43233;48.608;8.838;2023-06-14T08:52:54;21.40;29.70
32293;DHT22;43233;48.608;8.838;2023-06-14T08:55:23;21.50;29.90
32293;DHT22;43233;48.608;8.838;2023-06-14T08:57:51;21.50;30.20
32293;DHT22;43233;48.608;8.838;2023-06-14T09:00:19;21.60;29.70
32293;DHT22;43233;48.608;8.838;2023-06-14T09:02:46;21.70;30.10
32293;DHT22;43233;48.608;8.838;2023-06-14T09:05:12;21.80;30.30
32293;DHT22;43233;48.608;8.838;2023-06-14T09:07:40;21.90;29.60
32293;DHT22;43233;48.608;8.838;2023-06-14T09:10:15;22.00;29.70
32293;DHT22;43233;48.608;8.838;2023-06-14T09:12:41;22.10;30.00
32293;DHT22;43233;48.608;8.838;2023-06-14T09:15:08;22.10;29.80
32293;DHT22;43233;48.608;8.838;2023-06-14T09:17:41;22.20;29.00
32293;DHT22;43233;48.608;8.838;2023-06-14T09:20:08;22.30;29.10
32293;DHT22;43233;48.608;8.838;2023-06-14T09:22:39;22.30;28.30
32293;DHT22;43233;48.608;8.838;2023-06-14T09:25:05;22.40;28.50
32293;DHT22;43233;48.608;8.838;2023-06-14T09:27:32;22.40;28.10
32293;DHT22;43233;48.608;8.838;2023-06-14T09:29:57;22.50;29.20
32293;DHT22;43233;48.608;8.838;2023-06-14T09:32:23;22.50;28.50
32293;DHT22;43233;48.608;8.838;2023-06-14T09:34:49;22.60;27.80
32293;DHT22;43233;48.608;8.838;2023-06-14T09:37:29;22.70;27.70
32293;DHT22;43233;48.608;8.838;2023-06-14T09:39:55;22.70;28.00
32293;DHT22;43233;48.608;8.838;2023-06-14T09:42:21;22.80;27.80
32293;DHT22;43233;48.608;8.838;2023-06-14T09:44:49;22.90;27.20
32293;DHT22;43233;48.608;8.838;2023-06-14T09:47:16;22.90;27.10
32293;DHT22;43233;48.608;8.838;2023-06-14T09:49:42;23.00;26.50
32293;DHT22;43233;48.608;8.838;2023-06-14T09:52:15;23.00;27.20
32293;DHT22;43233;48.608;8.838;2023-06-14T09:54:43;23.00;26.50
32293;DHT22;43233;48.608;8.838;2023-06-14T09:57:10;23.00;25.30
32293;DHT22;43233;48.608;8.838;2023-06-14T09:59:46;23.00;27.50
32293;DHT22;43233;48.608;8.838;2023-06-14T10:02:31;23.20;26.60
32293;DHT22;43233;48.608;8.838;2023-06-14T10:05:07;23.20;25.30
32293;DHT22;43233;48.608;8.838;2023-06-14T10:07:48;23.30;26.20
32293;DHT22;43233;48.608;8.838;2023-06-14T10:10:15;23.40;26.40
32293;DHT22;43233;48.608;8.838;2023-06-14T10:12:40;23.50;26.00
32293;DHT22;43233;48.608;8.838;2023-06-14T10:15:09;23.60;25.10
32293;DHT22;43233;48.608;8.838;2023-06-14T10:17:39;23.70;25.30
32293;DHT22;43233;48.608;8.838;2023-06-14T10:20:27;23.80;25.80
32293;DHT22;43233;48.608;8.838;2023-06-14T10:23:17;23.90;25.10
32293;DHT22;43233;48.608;8.838;2023-06-14T10:25:44;24.00;25.00
32293;DHT22;43233;48.608;8.838;2023-06-14T10:28:20;24.00;24.90
32293;DHT22;43233;48.608;8.838;2023-06-14T10:31:10;24.10;25.00
32293;DHT22;43233;48.608;8.838;2023-06-14T10:33:49;24.20;24.40
32293;DHT22;43233;48.608;8.838;2023-06-14T10:38:57;24.30;24.80
32293;DHT22;43233;48.608;8.838;2023-06-14T10:41:25;24.30;24.60
32293;DHT22;43233;48.608;8.838;2023-06-14T10:43:52;24.40;24.10
32293;DHT22;43233;48.608;8.838;2023-06-14T10:46:35;24.50;23.70
32293;DHT22;43233;48.608;8.838;2023-06-14T10:49:01;24.50;23.10
32293;DHT22;43233;48.608;8.838;2023-06-14T10:51:29;24.60;22.60
32293;DHT22;43233;48.608;8.838;2023-06-14T10:53:58;24.60;22.90
32293;DHT22;43233;48.608;8.838;2023-06-14T10:56:30;24.50;22.50
32293;DHT22;43233;48.608;8.838;2023-06-14T10:58:57;24.60;23.30
32293;DHT22;43233;48.608;8.838;2023-06-14T11:04:17;24.80;21.40
32293;DHT22;43233;48.608;8.838;2023-06-14T11:06:50;24.90;21.60
32293;DHT22;43233;48.608;8.838;2023-06-14T11:12:04;25.00;20.50
32293;DHT22;43233;48.608;8.838;2023-06-14T11:14:31;25.00;21.90
32293;DHT22;43233;48.608;8.838;2023-06-14T11:16:57;25.10;21.20
32293;DHT22;43233;48.608;8.838;2023-06-14T11:19:23;25.10;21.00
32293;DHT22;43233;48.608;8.838;2023-06-14T11:21:49;25.10;20.80
32293;DHT22;43233;48.608;8.838;2023-06-14T11:24:16;25.00;19.10
32293;DHT22;43233;48.608;8.838;2023-06-14T11:26:42;24.90;20.10
32293;DHT22;43233;48.608;8.838;2023-06-14T11:29:08;24.90;20.70
32293;DHT22;43233;48.608;8.838;2023-06-14T11:31:33;24.90;21.50
32293;DHT22;43233;48.608;8.838;2023-06-14T11:33:59;25.10;21.00
32293;DHT22;43233;48.608;8.838;2023-06-14T11:36:30;25.10;20.70
32293;DHT22;43233;48.608;8.838;2023-06-14T11:39:03;25.10;21.80
32293;DHT22;43233;48.608;8.838;2023-06-14T11:41:39;25.20;20.90
32293;DHT22;43233;48.608;8.838;2023-06-14T11:44:06;25.30;21.00
32293;DHT22;43233;48.608;8.838;2023-06-14T11:46:32;25.40;20.50
32293;DHT22;43233;48.608;8.838;2023-06-14T11:48:58;25.40;19.50
32293;DHT22;43233;48.608;8.838;2023-06-14T11:51:24;25.50;20.50
32293;DHT22;43233;48.608;8.838;2023-06-14T11:53:50;25.60;20.50
32293;DHT22;43233;48.608;8.838;2023-06-14T11:56:16;25.70;19.80
32293;DHT22;43233;48.608;8.838;2023-06-14T11:58:45;25.80;19.20
32293;DHT22;43233;48.608;8.838;2023-06-14T12:01:16;25.90;20.00
32293;DHT22;43233;48.608;8.838;2023-06-14T12:03:48;26.00;20.30
32293;DHT22;43233;48.608;8.838;2023-06-14T12:06:14;26.10;19.80
32293;DHT22;43233;48.608;8.838;2023-06-14T12:08:40;26.10;20.00
32293;DHT22;43233;48.608;8.838;2023-06-14T12:11:12;26.10;19.80
32293;DHT22;43233;48.608;8.838;2023-06-14T12:13:39;26.20;20.70
32293;DHT22;43233;48.608;8.838;2023-06-14T12:16:07;26.30;20.60
32293;DHT22;43233;48.608;8.838;2023-06-14T12:18:35;26.40;19.50
32293;DHT22;43233;48.608;8.838;2023-06-14T12:21:01;26.30;19.30
32293;DHT22;43233;48.608;8.838;2023-06-14T12:23:48;26.30;19.70
32293;DHT22;43233;48.608;8.838;2023-06-14T12:26:18;26.40;20.10
32293;DHT22;43233;48.608;8.838;2023-06-14T12:28:45;26.50;19.40
32293;DHT22;43233;48.608;8.838;2023-06-14T12:31:11;26.50;17.70
32293;DHT22;43233;48.608;8.838;2023-06-14T12:33:38;26.40;18.20
32293;DHT22;43233;48.608;8.838;2023-06-14T12:36:05;26.40;19.70
32293;DHT22;43233;48.608;8.838;2023-06-14T12:38:32;26.40;19.70
32293;DHT22;43233;48.608;8.838;2023-06-14T12:40:58;26.40;19.90
32293;DHT22;43233;48.608;8.838;2023-06-14T12:43:24;26.40;19.90
32293;DHT22;43233;48.608;8.838;2023-06-14T12:45:49;26.40;19.50
32293;DHT22;43233;48.608;8.838;2023-06-14T12:48:15;26.30;19.70
32293;DHT22;43233;48.608;8.838;2023-06-14T12:50:41;26.40;19.80
32293;DHT22;43233;48.608;8.838;2023-06-14T12:53:07;26.50;19.40
32293;DHT22;43233;48.608;8.838;2023-06-14T12:55:33;26.60;20.20
32293;DHT22;43233;48.608;8.838;2023-06-14T12:57:58;26.70;19.20
32293;DHT22;43233;48.608;8.838;2023-06-14T13:00:24;26.80;19.40
32293;DHT22;43233;48.608;8.838;2023-06-14T13:02:51;26.80;19.50
32293;DHT22;43233;48.608;8.838;2023-06-14T13:05:17;26.90;19.40
32293;DHT22;43233;48.608;8.838;2023-06-14T13:07:43;26.90;19.70
32293;DHT22;43233;48.608;8.838;2023-06-14T13:10:10;26.90;19.20
32293;DHT22;43233;48.608;8.838;2023-06-14T13:12:35;27.00;18.20
32293;DHT22;43233;48.608;8.838;2023-06-14T13:15:01;26.90;18.60
32293;DHT22;43233;48.608;8.838;2023-06-14T13:17:26;26.90;18.60
32293;DHT22;43233;48.608;8.838;2023-06-14T13:19:52;26.90;19.10
32293;DHT22;43233;48.608;8.838;2023-06-14T13:22:18;27.00;20.20
32293;DHT22;43233;48.608;8.838;2023-06-14T13:24:44;27.00;19.70
32293;DHT22;43233;48.608;8.838;2023-06-14T13:27:10;27.10;19.80
32293;DHT22;43233;48.608;8.838;2023-06-14T13:29:36;27.20;19.80
32293;DHT22;43233;48.608;8.838;2023-06-14T13:32:02;27.30;19.20
32293;DHT22;43233;48.608;8.838;2023-06-14T13:34:28;27.30;19.30
32293;DHT22;43233;48.608;8.838;2023-06-14T13:36:54;27.40;18.90
32293;DHT22;43233;48.608;8.838;2023-06-14T13:39:19;27.40;18.50
32293;DHT22;43233;48.608;8.838;2023-06-14T13:41:45;27.20;18.10
32293;DHT22;43233;48.608;8.838;2023-06-14T13:44:10;27.10;18.50
32293;DHT22;43233;48.608;8.838;2023-06-14T13:46:40;26.90;18.80
32293;DHT22;43233;48.608;8.838;2023-06-14T13:49:08;26.90;19.10
32293;DHT22;43233;48.608;8.838;2023-06-14T13:51:34;26.90;19.20
32293;DHT22;43233;48.608;8.838;2023-06-14T13:54:00;27.00;19.90
32293;DHT22;43233;48.608;8.838;2023-06-14T13:56:26;27.10;19.90
32293;DHT22;43233;48.608;8.838;2023-06-14T13:58:52;27.30;18.80
32293;DHT22;43233;48.608;8.838;2023-06-14T14:01:18;27.30;19.60
32293;DHT22;43233;48.608;8.838;2023-06-14T14:03:46;27.40;19.50
32293;DHT22;43233;48.608;8.838;2023-06-14T14:06:12;27.50;18.80
32293;DHT22;43233;48.608;8.838;2023-06-14T14:08:38;27.50;18.40
32293;DHT22;43233;48.608;8.838;2023-06-14T14:11:05;27.50;18.30
32293;DHT22;43233;48.608;8.838;2023-06-14T14:13:31;27.60;18.70
32293;DHT22;43233;48.608;8.838;2023-06-14T14:15:57;27.70;18.90
32293;DHT22;43233;48.608;8.838;2023-06-14T14:18:22;27.80;18.00
32293;DHT22;43233;48.608;8.838;2023-06-14T14:20:48;27.90;18.60
32293;DHT22;43233;48.608;8.838;2023-06-14T14:23:14;27.80;18.20
32293;DHT22;43233;48.608;8.838;2023-06-14T14:25:40;27.90;18.30
32293;DHT22;43233;48.608;8.838;2023-06-14T14:28:05;27.90;18.30
32293;DHT22;43233;48.608;8.838;2023-06-14T14:30:31;27.90;17.70
32293;DHT22;43233;48.608;8.838;2023-06-14T14:32:58;28.00;17.50
32293;DHT22;43233;48.608;8.838;2023-06-14T14:35:23;27.90;18.00
32293;DHT22;43233;48.608;8.838;2023-06-14T14:37:51;27.90;17.90
32293;DHT22;43233;48.608;8.838;2023-06-14T14:40:17;27.90;18.00
32293;DHT22;43233;48.608;8.838;2023-06-14T14:42:42;27.90;18.30
32293;DHT22;43233;48.608;8.838;2023-06-14T14:45:08;27.80;18.00
32293;DHT22;43233;48.608;8.838;2023-06-14T14:47:34;27.80;18.10
32293;DHT22;43233;48.608;8.838;2023-06-14T14:50:00;27.90;18.30
32293;DHT22;43233;48.608;8.838;2023-06-14T14:52:26;27.90;17.70
32293;DHT22;43233;48.608;8.838;2023-06-14T14:54:52;27.90;17.40
32293;DHT22;43233;48.608;8.838;2023-06-14T14:57:18;27.90;17.60
32293;DHT22;43233;48.608;8.838;2023-06-14T14:59:44;27.90;18.10
32293;DHT22;43233;48.608;8.838;2023-06-14T15:02:09;27.90;17.40
32293;DHT22;43233;48.608;8.838;2023-06-14T15:04:35;27.90;17.60
32293;DHT22;43233;48.608;8.838;2023-06-14T15:07:01;27.90;17.30
32293;DHT22;43233;48.608;8.838;2023-06-14T15:09:27;27.90;17.90
32293;DHT22;43233;48.608;8.838;2023-06-14T15:11:52;27.90;17.80
32293;DHT22;43233;48.608;8.838;2023-06-14T15:14:18;27.90;17.10
32293;DHT22;43233;48.608;8.838;2023-06-14T15:16:43;27.80;17.50
32293;DHT22;43233;48.608;8.838;2023-06-14T15:19:09;27.70;17.40
32293;DHT22;43233;48.608;8.838;2023-06-14T15:21:35;27.70;17.60
32293;DHT22;43233;48.608;8.838;2023-06-14T15:24:01;27.60;17.60
32293;DHT22;43233;48.608;8.838;2023-06-14T15:26:27;27.60;18.30
32293;DHT22;43233;48.608;8.838;2023-06-14T15:28:54;27.70;17.70
32293;DHT22;43233;48.608;8.838;2023-06-14T15:31:19;27.60;17.80
32293;DHT22;43233;48.608;8.838;2023-06-14T15:33:45;27.60;17.70
32293;DHT22;43233;48.608;8.838;2023-06-14T15:36:11;27.50;17.80
32293;DHT22;43233;48.608;8.838;2023-06-14T15:38:36;27.50;18.00
32293;DHT22;43233;48.608;8.838;2023-06-14T15:41:02;27.40;18.30